sensor_id;sensor_type;location;lat;lon;timestamp;P1;P2;P0
68198;PMS7003;55021;51.554;17.044;2023-04-29T00:05:30;95.00;75.00;45.67
68198;PMS7003;55021;51.554;17.044;2023-04-29T00:20:33;43.25;38.50;25.50
68198;PMS7003;55021;51.554;17.044;2023-04-29T00:35:36;47.25;40.00;26.00
68198;PMS7003;55021;51.554;17.044;2023-04-29T00:50:38;57.50;43.25;27.75
68198;PMS7003;55021;51.554;17.044;2023-04-29T01:05:41;57.00;44.25;28.00
68198;PMS7003;55021;51.554;17.044;2023-04-29T01:20:48;41.75;34.75;23.75
68198;PMS7003;55021;51.554;17.044;2023-04-29T01:35:53;35.25;31.50;21.25
68198;PMS7003;55021;51.554;17.044;2023-04-29T01:51:07;35.75;32.25;21.00
68198;PMS7003;55021;51.554;17.044;2023-04-29T02:06:09;43.25;34.50;21.75
68198;PMS7003;55021;51.554;17.044;2023-04-29T02:21:12;37.25;30.25;19.50
68198;PMS7003;55021;51.554;17.044;2023-04-29T02:36:14;40.00;35.00;23.00
68198;PMS7003;55021;51.554;17.044;2023-04-29T02:51:17;30.75;30.25;20.25
68198;PMS7003;55021;51.554;17.044;2023-04-29T03:06:19;38.00;34.00;22.75
68198;PMS7003;55021;51.554;17.044;2023-04-29T03:21:22;42.25;36.00;22.00
68198;PMS7003;55021;51.554;17.044;2023-04-29T03:36:24;39.50;30.00;20.00
68198;PMS7003;55021;51.554;17.044;2023-04-29T03:51:26;36.75;33.75;21.25
68198;PMS7003;55021;51.554;17.044;2023-04-29T04:06:29;40.75;33.50;20.50
68198;PMS7003;55021;51.554;17.044;2023-04-29T04:21:31;37.50;34.00;21.50
68198;PMS7003;55021;51.554;17.044;2023-04-29T04:36:33;36.50;31.50;21.50
68198;PMS7003;55021;51.554;17.044;2023-04-29T04:51:36;39.75;31.25;19.00
68198;PMS7003;55021;51.554;17.044;2023-04-29T05:06:38;30.75;29.75;19.00
68198;PMS7003;55021;51.554;17.044;2023-04-29T05:21:41;35.00;28.00;18.00
68198;PMS7003;55021;51.554;17.044;2023-04-29T05:36:44;125.00;107.75;70.75
68198;PMS7003;55021;51.554;17.044;2023-04-29T05:51:46;58.75;45.75;29.75
68198;PMS7003;55021;51.554;17.044;2023-04-29T06:06:48;49.00;37.75;24.50
68198;PMS7003;55021;51.554;17.044;2023-04-29T06:21:52;51.25;43.00;30.25
68198;PMS7003;55021;51.554;17.044;2023-04-29T06:36:54;27.00;25.00;16.25
68198;PMS7003;55021;51.554;17.044;2023-04-29T06:51:57;52.50;43.00;28.00
68198;PMS7003;55021;51.554;17.044;2023-04-29T07:07:00;89.33;76.67;52.67
68198;PMS7003;55021;51.554;17.044;2023-04-29T07:22:03;33.00;29.50;19.50
68198;PMS7003;55021;51.554;17.044;2023-04-29T07:37:05;35.50;29.25;19.50
68198;PMS7003;55021;51.554;17.044;2023-04-29T07:52:08;33.50;29.75;19.50
68198;PMS7003;55021;51.554;17.044;2023-04-29T08:07:10;34.00;28.75;17.25
68198;PMS7003;55021;51.554;17.044;2023-04-29T08:22:13;32.50;30.50;20.00
68198;PMS7003;55021;51.554;17.044;2023-04-29T08:37:16;25.00;25.00;17.00
68198;PMS7003;55021;51.554;17.044;2023-04-29T09:07:48;26.50;24.50;15.50
68198;PMS7003;55021;51.554;17.044;2023-04-29T09:22:52;29.25;26.25;17.00
68198;PMS7003;55021;51.554;17.044;2023-04-29T09:38:10;30.75;29.00;19.00
68198;PMS7003;55021;51.554;17.044;2023-04-29T09:53:26;24.75;21.50;14.00
68198;PMS7003;55021;51.554;17.044;2023-04-29T10:08:32;36.75;31.00;19.00
68198;PMS7003;55021;51.554;17.044;2023-04-29T10:23:38;26.25;22.75;14.00
68198;PMS7003;55021;51.554;17.044;2023-04-29T10:39:20;22.75;21.75;13.00
68198;PMS7003;55021;51.554;17.044;2023-04-29T10:54:40;18.25;16.50;9.50
68198;PMS7003;55021;51.554;17.044;2023-04-29T11:10:21;20.00;18.25;12.50
68198;PMS7003;55021;51.554;17.044;2023-04-29T11:25:48;13.75;13.00;7.00
68198;PMS7003;55021;51.554;17.044;2023-04-29T11:41:06;16.75;14.50;8.25
68198;PMS7003;55021;51.554;17.044;2023-04-29T11:57:31;16.25;14.50;8.50
68198;PMS7003;55021;51.554;17.044;2023-04-29T12:12:49;14.00;13.50;7.00
68198;PMS7003;55021;51.554;17.044;2023-04-29T12:27:59;14.75;12.75;6.00
68198;PMS7003;55021;51.554;17.044;2023-04-29T12:43:09;14.50;14.50;8.00
68198;PMS7003;55021;51.554;17.044;2023-04-29T12:58:19;16.00;14.00;6.75
68198;PMS7003;55021;51.554;17.044;2023-04-29T13:13:29;16.25;15.00;9.00
68198;PMS7003;55021;51.554;17.044;2023-04-29T13:28:35;16.00;15.75;9.25
68198;PMS7003;55021;51.554;17.044;2023-04-29T13:43:37;14.75;14.75;9.00
68198;PMS7003;55021;51.554;17.044;2023-04-29T13:58:39;19.75;18.75;10.75
68198;PMS7003;55021;51.554;17.044;2023-04-29T14:13:42;30.00;29.50;19.00
68198;PMS7003;55021;51.554;17.044;2023-04-29T14:28:45;9.50;8.75;4.50
68198;PMS7003;55021;51.554;17.044;2023-04-29T14:43:47;10.75;10.00;4.00
68198;PMS7003;55021;51.554;17.044;2023-04-29T14:58:49;8.00;8.00;3.75
68198;PMS7003;55021;51.554;17.044;2023-04-29T15:13:52;13.00;10.75;5.25
68198;PMS7003;55021;51.554;17.044;2023-04-29T15:28:54;19.25;15.00;7.00
68198;PMS7003;55021;51.554;17.044;2023-04-29T15:43:57;18.50;15.50;7.00
68198;PMS7003;55021;51.554;17.044;2023-04-29T15:58:59;14.00;12.00;7.00
68198;PMS7003;55021;51.554;17.044;2023-04-29T16:14:02;17.25;15.00;8.25
68198;PMS7003;55021;51.554;17.044;2023-04-29T16:29:04;24.75;18.50;9.50
68198;PMS7003;55021;51.554;17.044;2023-04-29T16:44:07;22.00;18.25;9.50
68198;PMS7003;55021;51.554;17.044;2023-04-29T16:59:09;27.25;23.75;11.50
68198;PMS7003;55021;51.554;17.044;2023-04-29T17:14:12;24.00;21.00;12.00
68198;PMS7003;55021;51.554;17.044;2023-04-29T17:29:14;35.50;29.75;17.00
68198;PMS7003;55021;51.554;17.044;2023-04-29T17:44:18;33.25;32.00;18.00
68198;PMS7003;55021;51.554;17.044;2023-04-29T17:59:20;41.75;35.00;21.25
68198;PMS7003;55021;51.554;17.044;2023-04-29T18:14:23;48.25;38.00;22.25
68198;PMS7003;55021;51.554;17.044;2023-04-29T18:29:25;52.25;40.75;24.00
68198;PMS7003;55021;51.554;17.044;2023-04-29T18:44:28;58.00;44.50;27.00
68198;PMS7003;55021;51.554;17.044;2023-04-29T18:59:30;64.75;50.00;30.00
68198;PMS7003;55021;51.554;17.044;2023-04-29T19:14:32;67.25;53.00;32.75
68198;PMS7003;55021;51.554;17.044;2023-04-29T19:29:35;75.25;56.75;34.50
68198;PMS7003;55021;51.554;17.044;2023-04-29T19:44:38;74.75;56.75;34.25
68198;PMS7003;55021;51.554;17.044;2023-04-29T19:59:40;73.50;54.50;32.75
68198;PMS7003;55021;51.554;17.044;2023-04-29T20:14:43;66.25;50.00;30.75
68198;PMS7003;55021;51.554;17.044;2023-04-29T20:29:45;59.25;45.25;27.00
68198;PMS7003;55021;51.554;17.044;2023-04-29T20:44:48;58.25;46.75;28.00
68198;PMS7003;55021;51.554;17.044;2023-04-29T20:59:50;61.75;47.75;27.00
68198;PMS7003;55021;51.554;17.044;2023-04-29T21:14:53;63.25;47.50;29.00
68198;PMS7003;55021;51.554;17.044;2023-04-29T21:29:55;63.00;49.50;30.00
68198;PMS7003;55021;51.554;17.044;2023-04-29T21:44:58;58.25;46.00;28.25
68198;PMS7003;55021;51.554;17.044;2023-04-29T22:00:02;58.25;45.00;27.75
68198;PMS7003;55021;51.554;17.044;2023-04-29T22:15:06;56.00;41.50;25.75
68198;PMS7003;55021;51.554;17.044;2023-04-29T22:30:09;59.50;48.25;29.00
68198;PMS7003;55021;51.554;17.044;2023-04-29T22:45:12;59.00;44.50;28.00
68198;PMS7003;55021;51.554;17.044;2023-04-29T23:00:15;54.75;42.50;26.00
68198;PMS7003;55021;51.554;17.044;2023-04-29T23:15:17;55.50;44.25;26.25
68198;PMS7003;55021;51.554;17.044;2023-04-29T23:30:20;58.00;42.50;26.50
68198;PMS7003;55021;51.554;17.044;2023-04-29T23:45:23;50.00;41.00;25.75
